Time;durP1;ratioP1;P1;durP2;ratioP2;P2;SDS_P1;SDS_P2;PMS_P1;PMS_P2;Temp;Humidity;BMP_temperature;BMP_pressure;BME280_temperature;BME280_humidity;BME280_pressure;Samples;Min_cycle;Max_cycle;Signal;HPM_P1;HPM_P2
2021/12/10 00:01:02;;;;;;;0.00;0.00;;;;;;;11.72;98.76;98202.97;4991991;28;20053;-73
2021/12/10 00:03:48;;;;;;;0.00;0.00;;;;;;;11.71;97.96;98198.72;4990978;28;20084;-71
2021/12/10 00:06:19;;;;;;;0.00;0.00;;;;;;;11.76;97.19;98207.41;5002712;28;20042;-71
2021/12/10 00:08:50;;;;;;;0.00;0.00;;;;;;;11.87;96.50;98213.31;5012761;28;20092;-73
2021/12/10 00:11:20;;;;;;;0.00;0.00;;;;;;;11.91;96.25;98216.19;5014656;28;20037;-73
2021/12/10 00:13:47;;;;;;;0.00;0.00;;;;;;;11.92;95.83;98204.38;4996973;28;20038;-71
2021/12/10 00:16:15;;;;;;;0.00;0.00;;;;;;;11.98;95.34;98220.03;5012765;28;20030;-70
2021/12/10 00:18:47;;;;;;;0.00;0.00;;;;;;;11.97;94.52;98202.41;4997672;28;20037;-71
2021/12/10 00:21:13;;;;;;;0.00;0.00;;;;;;;12.01;94.30;98202.56;4995232;28;20109;-71
2021/12/10 00:23:38;;;;;;;0.00;0.00;;;;;;;12.11;93.88;98218.41;4998816;28;20469;-72
2021/12/10 00:26:06;;;;;;;0.47;0.30;;;;;;;12.09;93.91;98209.88;5014401;28;20021;-71
2021/12/10 00:28:39;;;;;;;0.47;0.47;;;;;;;12.16;93.01;98210.22;5014594;28;20030;-71
2021/12/10 00:31:30;;;;;;;0.00;0.00;;;;;;;12.25;92.12;98222.88;5013975;28;20058;-71
2021/12/10 00:33:59;;;;;;;2.10;1.35;;;;;;;12.22;91.65;98202.03;5014344;28;20060;-72
2021/12/10 00:36:25;;;;;;;;;;;;;;;12.32;92.03;98215.19;5009608;28;20030;-72
2021/12/10 00:38:51;;;;;;;0.00;0.00;;;;;;;12.26;91.90;98203.03;4994637;28;19916;-75
2021/12/10 00:41:17;;;;;;;0.00;0.00;;;;;;;12.34;91.76;98207.66;4977335;28;20030;-71
2021/12/10 00:43:43;;;;;;;0.00;0.00;;;;;;;12.27;91.78;98192.00;4994429;28;20041;-72
2021/12/10 00:46:09;;;;;;;0.00;0.00;;;;;;;12.31;90.76;98182.22;4994786;28;20105;-72
2021/12/10 00:48:34;;;;;;;0.00;0.00;;;;;;;12.28;90.30;98182.03;4977185;28;20030;-72
2021/12/10 00:51:02;;;;;;;0.00;0.00;;;;;;;12.27;90.45;98183.94;4994139;28;20165;-71
2021/12/10 00:53:27;;;;;;;0.00;0.00;;;;;;;12.35;90.20;98186.97;4996698;28;20026;-74
2021/12/10 00:55:53;;;;;;;0.45;0.45;;;;;;;12.30;90.03;98161.09;5013815;28;20200;-74
2021/12/10 00:58:20;;;;;;;0.00;0.00;;;;;;;12.34;89.18;98170.13;5014145;28;20034;-74
2021/12/10 01:00:51;;;;;;;0.17;0.17;;;;;;;12.45;89.12;98173.28;4995041;28;20460;-70
2021/12/10 01:03:21;;;;;;;0.52;0.47;;;;;;;12.43;89.03;98162.09;4994257;28;20030;-72
2021/12/10 01:05:50;;;;;;;0.52;0.52;;;;;;;12.52;88.91;98179.00;4993743;28;20489;-71
2021/12/10 01:08:16;;;;;;;0.15;0.15;;;;;;;12.58;88.62;98182.34;4976639;28;20445;-71
2021/12/10 01:10:54;;;;;;;0.00;0.00;;;;;;;12.56;88.67;98160.41;4994574;28;20046;-73
2021/12/10 01:13:27;;;;;;;0.00;0.00;;;;;;;12.58;88.82;98158.97;4994244;28;20037;-70
2021/12/10 01:24:36;;;;;;;0.13;0.13;;;;;;;12.75;87.65;98152.88;5013055;28;20045;-72
2021/12/10 01:27:14;;;;;;;0.22;0.22;;;;;;;12.74;87.74;98134.41;5013291;28;20496;-73
2021/12/10 01:29:45;;;;;;;0.00;0.00;;;;;;;12.71;87.76;98114.38;5013895;28;20064;-73
2021/12/10 01:32:14;;;;;;;0.08;0.08;;;;;;;12.79;87.52;98131.59;4997240;28;20126;-71
2021/12/10 01:34:40;;;;;;;0.05;0.05;;;;;;;12.75;87.41;98111.84;5002752;28;20054;-71
2021/12/10 01:37:07;;;;;;;0.00;0.00;;;;;;;12.79;87.41;98126.22;5012818;28;20080;-71
2021/12/10 01:39:37;;;;;;;0.00;0.00;;;;;;;12.80;87.15;98123.25;5013556;28;20109;-72
2021/12/10 01:43:06;;;;;;;1.80;1.70;;;;;;;12.80;87.05;98130.47;5012877;28;20493;-71
2021/12/10 01:45:05;;;;;;;0.00;0.00;;;;;;;12.89;86.56;98114.38;4999325;28;20041;-74
2021/12/10 01:47:34;;;;;;;0.00;0.00;;;;;;;12.85;86.31;98114.22;4993997;28;20030;-71
2021/12/10 01:50:00;;;;;;;1.67;1.55;;;;;;;12.92;85.77;98119.91;5012250;28;20025;-72
2021/12/10 01:52:27;;;;;;;0.00;0.00;;;;;;;12.96;85.17;98109.34;5013046;28;20508;-70
2021/12/10 01:54:56;;;;;;;0.10;0.10;;;;;;;12.92;84.79;98095.00;4997865;28;20501;-71
2021/12/10 01:57:25;;;;;;;0.05;0.05;;;;;;;13.00;84.85;98091.53;4995227;28;20046;-71
2021/12/10 01:59:51;;;;;;;0.30;0.30;;;;;;;12.97;83.84;98084.09;5009141;28;20493;-71
2021/12/10 02:02:27;;;;;;;0.00;0.00;;;;;;;13.06;83.57;98082.22;4982076;28;20034;-72
2021/12/10 02:04:54;;;;;;;0.00;0.00;;;;;;;13.05;82.92;98067.22;4996500;28;20155;-72
2021/12/10 02:07:24;;;;;;;0.70;0.70;;;;;;;13.06;82.40;98068.00;4976152;28;20045;-72
2021/12/10 02:09:50;;;;;;;0.00;0.00;;;;;;;13.14;82.46;98072.56;4992676;28;20054;-72
2021/12/10 02:12:18;;;;;;;0.20;0.20;;;;;;;13.01;82.31;98047.50;4992897;28;20042;-71
2021/12/10 02:14:44;;;;;;;0.43;0.43;;;;;;;13.17;81.71;98047.78;4993069;28;20033;-71
2021/12/10 02:17:11;;;;;;;0.00;0.00;;;;;;;13.17;82.19;98063.09;4992801;28;20433;-71
2021/12/10 02:19:38;;;;;;;0.00;0.00;;;;;;;13.23;82.07;98065.31;4992977;28;20053;-70
2021/12/10 02:22:06;;;;;;;0.00;0.00;;;;;;;13.23;82.12;98051.88;4992510;28;20066;-71
2021/12/10 02:24:32;;;;;;;0.05;0.05;;;;;;;13.24;81.76;98061.53;4999904;28;20473;-69
2021/12/10 02:27:01;;;;;;;0.00;0.00;;;;;;;13.22;81.22;98052.19;5012163;28;20041;-69
2021/12/10 02:29:30;;;;;;;0.10;0.10;;;;;;;13.22;81.25;98053.00;4997043;28;20034;-71
2021/12/10 02:31:56;;;;;;;0.00;0.00;;;;;;;13.22;80.98;98020.78;4992520;28;20132;-72
2021/12/10 02:34:23;;;;;;;1.45;1.17;;;;;;;13.22;80.59;98011.91;4979356;28;20030;-70
2021/12/10 02:36:49;;;;;;;0.47;0.47;;;;;;;13.24;80.63;98028.50;4992463;28;20030;-69
2021/12/10 02:39:19;;;;;;;0.00;0.00;;;;;;;13.32;80.75;98037.63;5003821;28;20394;-73
2021/12/10 02:41:44;;;;;;;0.10;0.10;;;;;;;13.19;81.06;98028.69;5011882;28;20433;-73
2021/12/10 02:44:14;;;;;;;0.00;0.00;;;;;;;13.26;81.47;98037.03;4994139;28;20030;-72
2021/12/10 02:46:40;;;;;;;0.03;0.03;;;;;;;13.25;81.83;98030.88;4994528;28;20497;-73
2021/12/10 02:49:08;;;;;;;0.10;0.10;;;;;;;13.26;81.99;98032.44;5011593;28;20026;-72
2021/12/10 02:51:35;;;;;;;0.32;0.32;;;;;;;13.26;82.30;98027.06;5012088;28;20041;-73
2021/12/10 02:54:02;;;;;;;0.00;0.00;;;;;;;13.26;82.42;98027.06;5000947;28;20034;-70
2021/12/10 02:56:28;;;;;;;0.43;0.43;;;;;;;13.22;82.45;98026.16;4992496;28;20445;-74
2021/12/10 02:58:58;;;;;;;0.00;0.00;;;;;;;13.28;82.82;98022.19;4992320;28;20278;-69
2021/12/10 03:01:39;;;;;;;0.00;0.00;;;;;;;13.29;82.92;98018.41;4992250;28;20633;-70
2021/12/10 03:04:09;;;;;;;1.88;0.40;;;;;;;13.25;83.31;98008.59;4991885;28;20034;-73
2021/12/10 03:06:43;;;;;;;0.00;0.00;;;;;;;13.28;83.25;98003.38;5002503;28;20042;-74
2021/12/10 03:09:10;;;;;;;0.10;0.10;;;;;;;13.31;83.17;98001.97;5011439;28;20022;-73
2021/12/10 03:11:37;;;;;;;0.08;0.08;;;;;;;13.27;83.12;98001.03;5008976;28;20537;-73
2021/12/10 03:14:09;;;;;;;;;;;;;;;13.33;83.09;97986.31;4992208;28;20054;-75
2021/12/10 03:16:36;;;;;;;0.00;0.00;;;;;;;13.34;83.33;98004.03;4980075;28;19972;-74
2021/12/10 03:19:02;;;;;;;0.00;0.00;;;;;;;13.33;83.36;97983.63;4991626;28;20030;-74
2021/12/10 03:21:27;;;;;;;0.00;0.00;;;;;;;13.25;83.28;97969.13;4974467;28;20033;-73
2021/12/10 03:23:53;;;;;;;0.10;0.10;;;;;;;13.32;83.29;97979.38;4991355;28;20053;-73
2021/12/10 03:26:21;;;;;;;0.00;0.00;;;;;;;13.17;82.94;97950.34;4991905;28;20066;-74
2021/12/10 03:28:50;;;;;;;0.00;0.00;;;;;;;13.35;83.02;97967.19;5011818;28;20069;-73
2021/12/10 03:31:17;;;;;;;0.00;0.00;;;;;;;13.35;82.53;97975.25;5003936;28;20026;-72
2021/12/10 03:33:44;;;;;;;0.00;0.00;;;;;;;13.34;82.15;97960.25;4991475;28;20030;-72
2021/12/10 03:36:10;;;;;;;0.10;0.10;;;;;;;13.44;82.21;97976.06;4990424;28;20030;-73
2021/12/10 03:38:38;;;;;;;1.30;0.73;;;;;;;13.44;81.86;97986.81;4992605;28;20047;-71
2021/12/10 03:41:05;;;;;;;0.00;0.00;;;;;;;13.47;81.62;97977.31;4991211;28;20060;-71
2021/12/10 03:43:31;;;;;;;0.93;0.85;;;;;;;13.49;81.33;97981.25;4991532;28;20034;-71
2021/12/10 03:45:59;;;;;;;0.00;0.00;;;;;;;13.45;81.16;97969.56;4991451;28;20038;-71
2021/12/10 03:48:31;;;;;;;0.00;0.00;;;;;;;13.48;81.26;97979.66;5009886;28;20034;-71
2021/12/10 03:50:59;;;;;;;2.17;1.23;;;;;;;13.49;81.08;97980.44;5011063;28;20026;-71
2021/12/10 03:53:25;;;;;;;0.00;0.00;;;;;;;13.55;80.95;97979.97;5005599;28;20123;-71
2021/12/10 03:55:56;;;;;;;0.00;0.00;;;;;;;13.58;81.16;97983.91;5011226;28;20053;-71
2021/12/10 03:58:21;;;;;;;0.03;0.03;;;;;;;13.55;81.49;97979.97;5004353;28;20034;-71
2021/12/10 04:00:50;;;;;;;0.03;0.03;;;;;;;13.59;81.63;97990.84;4991453;28;20038;-70
2021/12/10 04:03:19;;;;;;;0.00;0.00;;;;;;;13.51;82.22;97978.22;4988851;28;20030;-72
2021/12/10 04:05:46;;;;;;;0.10;0.10;;;;;;;13.55;82.59;97981.84;4992701;28;20512;-72
2021/12/10 04:08:11;;;;;;;0.00;0.00;;;;;;;13.51;82.95;97979.03;4989337;28;20030;-72
2021/12/10 04:10:38;;;;;;;0.10;0.10;;;;;;;13.54;83.26;97985.66;4992173;28;20386;-72
2021/12/10 04:13:05;;;;;;;0.00;0.00;;;;;;;13.53;82.87;97984.09;4990925;28;20037;-73
2021/12/10 04:15:30;;;;;;;0.00;0.00;;;;;;;13.55;82.74;97979.97;4991747;28;20040;-74
2021/12/10 04:17:58;;;;;;;0.00;0.00;;;;;;;13.57;83.10;98001.94;4991150;28;20022;-75
2021/12/10 04:20:27;;;;;;;0.00;0.00;;;;;;;13.54;83.26;98007.16;4990288;28;20065;-73
2021/12/10 04:22:53;;;;;;;0.03;0.03;;;;;;;13.49;83.34;97980.44;4989879;28;20038;-74
2021/12/10 04:25:21;;;;;;;0.30;0.30;;;;;;;13.54;83.57;97985.66;4991095;28;20030;-74
2021/12/10 04:27:48;;;;;;;0.00;0.00;;;;;;;13.56;83.33;97970.00;5006039;28;20561;-75
2021/12/10 04:30:14;;;;;;;0.00;0.00;;;;;;;13.49;83.63;97951.72;4994410;28;20048;-74
2021/12/10 04:32:41;;;;;;;1.45;1.35;;;;;;;13.54;83.91;97978.38;4991266;28;20113;-72
2021/12/10 04:35:08;;;;;;;0.40;0.40;;;;;;;13.51;83.44;97930.69;4991000;28;20030;-75
2021/12/10 04:37:34;;;;;;;0.30;0.30;;;;;;;13.49;83.07;97945.53;4973659;28;20046;-73
2021/12/10 04:40:03;;;;;;;1.30;1.17;;;;;;;13.52;83.12;97961.78;4987888;28;20100;-77
2021/12/10 04:42:29;;;;;;;0.10;0.10;;;;;;;13.48;82.92;97939.38;4975236;28;20050;-73
2021/12/10 04:44:57;;;;;;;0.57;0.43;;;;;;;13.53;83.19;97944.56;4975474;28;20038;-75
2021/12/10 04:47:24;;;;;;;0.10;0.10;;;;;;;13.53;83.40;97947.25;4992384;28;20472;-72
2021/12/10 04:49:50;;;;;;;0.10;0.10;;;;;;;13.51;83.33;97941.44;4987020;28;20077;-71
2021/12/10 04:52:15;;;;;;;0.10;0.10;;;;;;;13.53;82.30;97952.63;4994119;28;20390;-73
2021/12/10 04:54:41;;;;;;;0.20;0.20;;;;;;;13.51;82.14;97927.19;4976887;28;20092;-75
2021/12/10 04:57:07;;;;;;;0.10;0.10;;;;;;;13.51;81.21;97925.31;5001247;28;20022;-75
2021/12/10 04:59:34;;;;;;;0.10;0.10;;;;;;;13.60;81.37;97938.72;5013877;28;20421;-72
2021/12/10 05:02:04;;;;;;;2.20;1.08;;;;;;;13.54;81.27;97927.34;5013773;28;20110;-72
2021/12/10 05:04:30;;;;;;;0.00;0.00;;;;;;;13.57;80.85;97925.91;4994460;28;20057;-74
2021/12/10 05:06:58;;;;;;;0.00;0.00;;;;;;;13.59;80.71;97940.59;4996359;28;20053;-75
2021/12/10 05:09:24;;;;;;;0.05;0.05;;;;;;;13.62;80.07;97957.97;4993824;28;20460;-74
2021/12/10 05:11:50;;;;;;;0.10;0.10;;;;;;;13.64;79.70;97963.03;4994436;28;20034;-72
2021/12/10 05:14:17;;;;;;;0.00;0.00;;;;;;;13.64;79.46;97939.63;4993956;28;20026;-75
2021/12/10 05:16:45;;;;;;;1.08;1.02;;;;;;;13.65;79.82;97976.13;4998635;28;20032;-72
2021/12/10 05:19:16;;;;;;;0.88;0.88;;;;;;;13.65;79.95;97962.69;5010557;28;20040;-71
2021/12/10 05:21:45;;;;;;;0.20;0.20;;;;;;;13.66;79.96;97958.09;5011810;28;20529;-78
2021/12/10 05:24:11;;;;;;;0.20;0.20;;;;;;;13.60;80.06;97963.66;4988986;28;20036;-72
2021/12/10 05:26:37;;;;;;;6.10;0.82;;;;;;;13.64;79.86;97971.88;4999441;28;20030;-74
2021/12/10 05:29:05;;;;;;;0.10;0.10;;;;;;;13.67;79.59;97979.28;5008951;28;20390;-73
2021/12/10 05:31:30;;;;;;;6.50;0.38;;;;;;;13.64;79.72;97979.94;5005655;28;20391;-72
2021/12/10 05:33:56;;;;;;;0.10;0.10;;;;;;;13.71;80.01;97988.28;4993999;28;20058;-71
2021/12/10 05:36:22;;;;;;;0.10;0.10;;;;;;;13.65;79.98;97986.88;4993151;28;20517;-70
2021/12/10 05:38:48;;;;;;;0.30;0.30;;;;;;;13.67;80.08;97986.56;4993359;28;20413;-71
2021/12/10 05:41:14;;;;;;;0.25;0.25;;;;;;;13.68;80.17;97998.88;4993097;28;20118;-71
2021/12/10 05:43:41;;;;;;;0.00;0.00;;;;;;;13.68;79.49;97999.66;4992926;28;20456;-71
2021/12/10 05:46:08;;;;;;;0.47;0.47;;;;;;;13.61;80.06;97994.78;4993216;28;20048;-71
2021/12/10 05:48:34;;;;;;;0.10;0.10;;;;;;;13.65;80.04;98002.22;4993065;28;20030;-71
2021/12/10 05:51:00;;;;;;;0.00;0.00;;;;;;;13.64;79.96;97981.84;4975144;28;20037;-71
2021/12/10 05:53:25;;;;;;;0.00;0.00;;;;;;;13.64;79.93;98011.38;4993266;28;20058;-72
2021/12/10 05:55:51;;;;;;;0.10;0.10;;;;;;;13.64;79.92;98006.78;4993720;28;20026;-72
2021/12/10 05:58:18;;;;;;;2.20;0.63;;;;;;;13.60;79.72;98012.00;4992234;28;20030;-72
2021/12/10 06:00:48;;;;;;;0.00;0.00;;;;;;;13.66;80.18;98023.38;4993634;28;20058;-72
2021/12/10 06:03:15;;;;;;;0.15;0.15;;;;;;;13.63;80.22;98015.97;4992414;28;20682;-72
2021/12/10 06:05:41;;;;;;;0.10;0.10;;;;;;;13.61;80.00;98004.75;4975406;28;20081;-72
2021/12/10 06:08:07;;;;;;;0.10;0.10;;;;;;;13.63;79.90;98015.97;4992594;28;20029;-71
2021/12/10 06:10:34;;;;;;;0.00;0.00;;;;;;;13.64;80.11;98017.53;4993426;28;20073;-71
2021/12/10 06:12:59;;;;;;;0.20;0.20;;;;;;;13.56;79.90;98005.72;4992494;28;20414;-70
2021/12/10 06:15:27;;;;;;;0.00;0.00;;;;;;;13.64;79.60;97997.97;4992875;28;20026;-71
2021/12/10 06:17:53;;;;;;;0.17;0.17;;;;;;;13.62;78.90;98014.38;4992978;28;20026;-71
2021/12/10 06:20:22;;;;;;;0.00;0.00;;;;;;;13.64;78.80;98006.78;4974641;28;20029;-71
2021/12/10 06:22:47;;;;;;;0.15;0.15;;;;;;;13.66;79.03;98014.53;4974942;28;20099;-71
2021/12/10 06:25:14;;;;;;;0.00;0.00;;;;;;;13.66;78.53;97999.22;4992465;28;20030;-71
2021/12/10 06:27:44;;;;;;;0.20;0.20;;;;;;;13.62;78.44;98006.31;4992624;28;20416;-71
2021/12/10 06:30:15;;;;;;;0.10;0.10;;;;;;;13.69;78.16;98021.94;4991986;28;20037;-71
2021/12/10 06:32:43;;;;;;;0.05;0.05;;;;;;;13.69;77.49;98017.34;4974715;28;20192;-71
2021/12/10 06:35:10;;;;;;;5.93;1.98;;;;;;;13.69;78.17;98013.88;4991864;28;20105;-71
2021/12/10 06:37:37;;;;;;;0.05;0.05;;;;;;;13.73;78.36;98018.31;4991885;28;20034;-71
2021/12/10 06:40:07;;;;;;;0.00;0.00;;;;;;;13.64;77.92;98014.06;4991756;28;20031;-71
2021/12/10 06:42:33;;;;;;;0.00;0.00;;;;;;;13.69;78.25;98022.72;4991833;28;20049;-71
2021/12/10 06:44:59;;;;;;;0.00;0.00;;;;;;;13.66;78.28;98014.53;4991539;28;20485;-71
2021/12/10 06:47:24;;;;;;;0.00;0.00;;;;;;;13.69;78.74;98036.16;4974391;28;20032;-71
2021/12/10 06:49:50;;;;;;;0.00;0.00;;;;;;;13.67;78.85;98042.97;4974365;28;20026;-71
2021/12/10 06:52:16;;;;;;;0.00;0.00;;;;;;;13.57;79.39;98020.72;4991584;28;20027;-70
2021/12/10 06:54:41;;;;;;;0.03;0.03;;;;;;;13.54;79.44;98010.63;4991879;28;20104;-70
2021/12/10 06:57:07;;;;;;;0.00;0.00;;;;;;;13.64;80.04;98032.88;4991954;28;20482;-70
2021/12/10 06:59:33;;;;;;;0.10;0.10;;;;;;;13.64;80.42;98036.34;4991871;28;20117;-70
2021/12/10 07:01:58;;;;;;;0.05;0.05;;;;;;;13.64;81.04;98041.72;4974359;28;20030;-70
2021/12/10 07:04:24;;;;;;;0.10;0.10;;;;;;;13.67;81.32;98040.28;4991914;28;20038;-70
2021/12/10 07:06:50;;;;;;;0.20;0.20;;;;;;;13.66;81.66;98050.25;4991731;28;20066;-70
2021/12/10 07:09:22;;;;;;;0.00;0.00;;;;;;;13.58;82.02;98040.31;4990975;28;20030;-71
2021/12/10 07:11:49;;;;;;;0.00;0.00;;;;;;;13.58;82.66;98029.56;4992131;28;20520;-70
2021/12/10 07:14:16;;;;;;;0.87;0.87;;;;;;;13.61;83.25;98035.09;4991833;28;20030;-70
2021/12/10 07:16:42;;;;;;;0.03;0.03;;;;;;;13.53;83.96;98043.19;4992036;28;20084;-72
2021/12/10 07:19:08;;;;;;;0.00;0.00;;;;;;;13.52;84.59;98053.13;4991486;28;20402;-71
2021/12/10 07:21:34;;;;;;;0.00;0.00;;;;;;;13.48;85.51;98052.19;4992197;28;20066;-70
2021/12/10 07:24:05;;;;;;;0.05;0.05;;;;;;;13.45;86.49;98047.44;4991682;28;20087;-70
2021/12/10 07:26:32;;;;;;;0.20;0.20;;;;;;;13.30;87.24;98043.34;4991937;28;20026;-70
2021/12/10 07:28:58;;;;;;;0.43;0.43;;;;;;;13.28;88.05;98045.53;4991703;28;20026;-71
2021/12/10 07:31:23;;;;;;;0.00;0.00;;;;;;;13.17;88.53;98023.63;4991887;28;20041;-70
2021/12/10 07:33:49;;;;;;;0.00;0.00;;;;;;;13.11;88.83;98025.69;4991532;28;20034;-70
2021/12/10 07:36:16;;;;;;;0.10;0.10;;;;;;;13.04;89.05;98014.63;4974160;28;20068;-71
2021/12/10 07:38:43;;;;;;;0.00;0.00;;;;;;;13.02;89.45;98014.16;4991859;28;20121;-73
2021/12/10 07:41:08;;;;;;;0.55;0.55;;;;;;;12.93;89.89;97992.69;4991278;28;20541;-72
2021/12/10 07:43:35;;;;;;;0.10;0.10;;;;;;;12.90;90.54;98008.63;4974082;28;20126;-72
2021/12/10 07:46:01;;;;;;;0.00;0.00;;;;;;;12.88;90.73;98024.28;4991474;28;20446;-72
2021/12/10 07:48:28;;;;;;;0.10;0.10;;;;;;;12.80;91.40;98009.75;4974210;28;20089;-72
2021/12/10 07:51:03;;;;;;;0.25;0.25;;;;;;;12.75;92.41;98007.22;4991903;28;20080;-72
2021/12/10 07:53:31;;;;;;;2.70;1.80;;;;;;;12.76;92.83;98017.63;4991653;28;20498;-72
2021/12/10 07:56:00;;;;;;;0.00;0.00;;;;;;;12.50;92.58;97985.47;4991368;28;20383;-72
2021/12/10 07:58:25;;;;;;;0.00;0.00;;;;;;;12.62;92.26;98017.81;4991539;28;20397;-72
2021/12/10 08:00:51;;;;;;;0.98;0.98;;;;;;;12.56;91.92;98035.16;4991605;28;20032;-72
2021/12/10 08:03:17;;;;;;;0.28;0.28;;;;;;;12.45;90.83;98037.34;4991247;28;20022;-72
2021/12/10 08:05:43;;;;;;;0.10;0.10;;;;;;;12.38;90.49;98033.53;4991163;28;20505;-72
2021/12/10 08:08:10;;;;;;;0.52;0.52;;;;;;;12.25;90.31;98038.69;4991555;28;20084;-72
2021/12/10 08:10:38;;;;;;;0.00;0.00;;;;;;;12.16;90.77;98030.66;4991454;28;20034;-72
2021/12/10 08:13:04;;;;;;;0.20;0.20;;;;;;;12.07;91.41;98039.75;4990975;28;20037;-72
2021/12/10 08:15:30;;;;;;;0.70;0.70;;;;;;;11.93;92.28;98031.81;4974043;28;20083;-72
2021/12/10 08:17:56;;;;;;;0.30;0.30;;;;;;;11.93;92.03;98045.22;4991431;28;20053;-72
2021/12/10 08:20:25;;;;;;;0.00;0.00;;;;;;;11.81;92.04;98021.66;4991180;28;20461;-72
2021/12/10 08:22:52;;;;;;;0.10;0.10;;;;;;;11.81;92.27;98024.34;4993963;28;20058;-72
2021/12/10 08:25:20;;;;;;;0.00;0.00;;;;;;;11.74;92.33;98003.34;4995014;28;20093;-72
2021/12/10 08:27:47;;;;;;;0.00;0.00;;;;;;;11.76;93.44;98021.81;4994933;28;20126;-72
2021/12/10 08:30:16;;;;;;;0.43;0.43;;;;;;;11.64;92.71;97993.69;4994863;28;20034;-72
2021/12/10 08:32:42;;;;;;;0.35;0.35;;;;;;;11.68;93.11;98005.41;4994768;28;20476;-72
2021/12/10 08:35:10;;;;;;;0.00;0.00;;;;;;;11.66;93.73;98014.84;4994848;28;20109;-72
2021/12/10 08:37:37;;;;;;;0.08;0.08;;;;;;;11.68;93.31;98015.28;4994980;28;20264;-72
2021/12/10 08:40:05;;;;;;;0.05;0.05;;;;;;;11.62;94.51;98005.81;4994822;28;20061;-73
2021/12/10 08:42:30;;;;;;;0.63;0.63;;;;;;;11.58;94.11;98019.03;4994859;28;20030;-73
2021/12/10 08:44:56;;;;;;;0.20;0.20;;;;;;;11.58;94.66;98013.69;4994409;28;20433;-72
2021/12/10 08:47:21;;;;;;;0.00;0.00;;;;;;;11.52;94.39;98004.19;4994192;28;20478;-72
2021/12/10 08:49:47;;;;;;;0.20;0.20;;;;;;;11.60;94.89;98027.56;4994698;28;20037;-72
2021/12/10 08:52:15;;;;;;;0.30;0.30;;;;;;;11.68;95.17;98045.56;4977073;28;20037;-72
2021/12/10 08:54:41;;;;;;;;;;;;;;;11.68;94.74;98026.81;4995099;28;20034;-73
2021/12/10 08:57:08;;;;;;;0.00;0.00;;;;;;;11.62;95.59;98016.53;4994382;28;19917;-72
2021/12/10 08:59:36;;;;;;;0.10;0.10;;;;;;;11.70;96.08;98031.84;4994567;28;20037;-72
2021/12/10 09:02:04;;;;;;;0.00;0.00;;;;;;;11.64;95.69;98009.00;4994486;28;20030;-73
2021/12/10 09:04:33;;;;;;;0.00;0.00;;;;;;;11.67;96.33;98017.19;4994412;28;20037;-72
2021/12/10 09:07:03;;;;;;;0.10;0.10;;;;;;;11.74;96.20;98014.06;4994390;28;20297;-72
2021/12/10 09:09:30;;;;;;;0.00;0.00;;;;;;;11.73;95.70;98006.34;4994425;28;20077;-73
2021/12/10 09:11:59;;;;;;;0.00;0.00;;;;;;;11.78;94.93;98012.38;4994351;28;20474;-72
2021/12/10 09:14:27;;;;;;;;;;;;;;;11.82;95.16;97999.91;4977027;28;20128;-72
2021/12/10 09:16:55;;;;;;;;;;;;;;;11.88;94.76;98016.66;4994405;28;20492;-72
2021/12/10 09:19:21;;;;;;;0.00;0.00;;;;;;;11.90;94.88;98009.09;4994011;28;19921;-72
2021/12/10 09:21:47;;;;;;;0.00;0.00;;;;;;;11.92;94.13;97995.41;4976625;28;20030;-72
2021/12/10 09:24:20;;;;;;;0.22;0.22;;;;;;;11.96;94.23;97990.97;4993832;28;20026;-72
2021/12/10 09:26:52;;;;;;;0.00;0.00;;;;;;;11.95;93.40;97997.44;4976598;28;20452;-72
2021/12/10 09:29:18;;;;;;;0.20;0.20;;;;;;;12.00;94.23;98022.25;4976263;28;20030;-73
2021/12/10 09:31:44;;;;;;;0.00;0.00;;;;;;;12.00;93.62;98010.75;4993991;28;20042;-72
2021/12/10 09:34:12;;;;;;;0.00;0.00;;;;;;;12.00;93.40;98035.63;4992501;28;20125;-73
2021/12/10 09:36:38;;;;;;;0.00;0.00;;;;;;;11.94;93.30;98012.72;4993644;28;20557;-72
2021/12/10 09:39:07;;;;;;;1.55;1.13;;;;;;;11.92;93.28;98038.25;4993840;28;20057;-72
2021/12/10 09:41:33;;;;;;;0.00;0.00;;;;;;;11.96;92.85;98034.69;4993842;28;20033;-72
2021/12/10 09:43:59;;;;;;;0.00;0.00;;;;;;;11.96;93.24;98036.53;4993328;28;20035;-73
2021/12/10 09:46:25;;;;;;;0.00;0.00;;;;;;;11.96;94.00;98021.28;4993220;28;20097;-72
2021/12/10 09:48:51;;;;;;;0.08;0.08;;;;;;;11.92;94.15;98009.56;4993359;28;20030;-73
2021/12/10 09:51:25;;;;;;;0.10;0.10;;;;;;;11.96;93.68;98010.56;4993392;28;20478;-72
2021/12/10 09:53:56;;;;;;;0.00;0.00;;;;;;;11.92;93.92;97998.84;4993210;28;20061;-72
2021/12/10 09:56:22;;;;;;;0.00;0.00;;;;;;;11.98;93.04;97991.50;4993599;28;20030;-72
2021/12/10 09:58:49;;;;;;;0.00;0.00;;;;;;;12.01;92.15;97980.16;4993235;28;20027;-72
2021/12/10 10:01:32;;;;;;;0.00;0.00;;;;;;;12.05;91.27;97988.34;4993146;28;20473;-72
2021/12/10 10:04:02;;;;;;;0.10;0.10;;;;;;;12.16;90.83;97997.69;4975891;28;20023;-72
2021/12/10 10:06:36;;;;;;;0.00;0.00;;;;;;;12.17;90.36;97989.34;4993065;28;20513;-71
2021/12/10 10:09:04;;;;;;;0.00;0.00;;;;;;;12.14;89.36;97981.13;4993333;28;20053;-72
2021/12/10 10:11:33;;;;;;;0.00;0.00;;;;;;;12.16;89.50;97974.34;4992698;28;20076;-71
2021/12/10 10:13:58;;;;;;;0.00;0.00;;;;;;;12.26;89.29;97996.63;4992855;28;20122;-71
2021/12/10 10:16:27;;;;;;;0.00;0.00;;;;;;;12.28;89.95;97992.53;4993201;28;20105;-71
2021/12/10 10:18:53;;;;;;;0.75;0.52;;;;;;;12.22;89.79;97964.28;4993043;28;20019;-71
2021/12/10 10:21:23;;;;;;;0.00;0.00;;;;;;;12.21;89.99;97957.34;4992532;28;20049;-71
2021/12/10 10:23:50;;;;;;;0.10;0.10;;;;;;;12.30;90.71;97966.19;4992896;28;20500;-73
2021/12/10 10:26:25;;;;;;;0.08;0.08;;;;;;;12.33;90.65;97957.50;4992700;28;20034;-71
2021/12/10 10:28:52;;;;;;;0.20;0.20;;;;;;;12.25;90.39;97955.59;4975470;28;20026;-71
2021/12/10 10:31:21;;;;;;;0.17;0.17;;;;;;;12.21;90.65;97954.66;4992565;28;20061;-73
2021/12/10 10:33:54;;;;;;;0.05;0.05;;;;;;;12.35;90.80;97983.22;4992509;28;20109;-71
2021/12/10 10:36:24;;;;;;;0.00;0.00;;;;;;;12.26;90.62;97964.44;4992220;28;20533;-71
2021/12/10 10:38:57;;;;;;;0.10;0.10;;;;;;;12.32;91.11;97974.69;4992711;28;20026;-71
2021/12/10 10:41:27;;;;;;;0.10;0.10;;;;;;;12.25;90.82;97946.78;4992328;28;20034;-71
2021/12/10 10:43:53;;;;;;;0.32;0.32;;;;;;;12.25;91.52;97944.88;4992334;28;20038;-71
2021/12/10 10:46:18;;;;;;;0.00;0.00;;;;;;;12.23;91.22;97949.78;4992037;28;20038;-71
2021/12/10 10:48:48;;;;;;;0.00;0.00;;;;;;;12.21;91.34;97930.53;4992785;28;20026;-72
2021/12/10 10:51:25;;;;;;;0.25;0.25;;;;;;;12.26;91.13;97941.09;4992448;28;20040;-71
2021/12/10 10:53:53;;;;;;;0.00;0.00;;;;;;;12.20;91.17;97936.22;4992503;28;20033;-71
2021/12/10 10:56:31;;;;;;;0.03;0.03;;;;;;;12.24;91.17;97943.31;4992190;28;20026;-71
2021/12/10 10:59:01;;;;;;;1.17;0.75;;;;;;;12.29;90.67;97961.94;4992351;28;20113;-71
2021/12/10 11:01:44;;;;;;;0.00;0.00;;;;;;;12.24;90.33;97950.56;4992093;28;20490;-71
2021/12/10 11:04:18;;;;;;;0.00;0.00;;;;;;;12.30;89.60;97960.84;4974268;28;20030;-71
2021/12/10 11:06:49;;;;;;;0.20;0.20;;;;;;;12.32;89.57;97949.78;4974450;28;20050;-71
2021/12/10 11:09:30;;;;;;;0.00;0.00;;;;;;;12.33;89.11;97956.72;4991678;28;20057;-72
2021/12/10 11:12:04;;;;;;;0.63;0.63;;;;;;;12.25;nan;97944.09;4974679;28;20034;-72
2021/12/10 11:14:48;;;;;;;0.10;0.10;;;;;;;12.36;89.19;97974.09;4991838;28;20045;-72
2021/12/10 11:17:47;;;;;;;0.00;0.00;;;;;;;12.35;88.99;97967.91;4991566;28;20153;-73
2021/12/10 11:20:21;;;;;;;0.00;0.00;;;;;;;12.29;88.24;97964.63;4991437;28;20419;-72
2021/12/10 11:23:07;;;;;;;0.00;0.00;;;;;;;12.38;88.36;97977.22;4991819;28;20026;-72
2021/12/10 11:25:43;;;;;;;0.03;0.03;;;;;;;12.36;87.67;97979.44;4991393;28;20026;-72
2021/12/10 11:28:13;;;;;;;0.10;0.10;;;;;;;12.37;87.54;98008.63;4974082;28;20386;-73
2021/12/10 11:30:45;;;;;;;0.28;0.28;;;;;;;12.30;87.32;97984.16;4991836;28;20038;-72
2021/12/10 11:33:14;;;;;;;0.00;0.00;;;;;;;12.36;86.92;97992.84;4991558;28;20034;-72
2021/12/10 11:35:51;;;;;;;0.00;0.00;;;;;;;12.37;86.67;98002.47;4974347;28;20048;-72
2021/12/10 11:38:31;;;;;;;0.00;0.00;;;;;;;12.35;87.18;98002.00;4991281;28;20031;-71
2021/12/10 11:40:59;;;;;;;0.00;0.00;;;;;;;12.34;86.73;97998.53;4991798;28;20050;-72
2021/12/10 11:43:43;;;;;;;0.00;0.00;;;;;;;12.33;86.40;98021.84;4991378;28;20036;-72
2021/12/10 11:48:50;;;;;;;0.00;0.00;;;;;;;12.25;85.98;98006.53;4991795;28;20473;-72
2021/12/10 11:51:34;;;;;;;0.00;0.00;;;;;;;12.24;86.22;98004.16;4973876;28;20030;-72